Flight Track Log - Related Links

Times and Time Zones

All times are in EDT time to prevent confusion due to time zone crossing. See the ASQ5852 flight status page for this flight to view local times or setup timezone preferences in your user account.

Time Position Orientation Groundspeed Altitude Reporting Facility
EDT Latitude Longitude Course Direction KTS MPH feet Rate Location/Type
Fri 07:13:34 PM 38.9667 -77.5000 North 192 221 1,800  Level Potomac TRACON
Fri 07:14:28 PM 39.0167 -77.5000 360° North 244 281 3,000 2,000 Climbing Potomac TRACON
Fri 07:15:34 PM 39.1000 -77.5000 360° North 270 311 5,800 2,325 Climbing Potomac TRACON
Fri 07:16:00 PM 39.3222 -77.4500 North  Level FlightAware Approximate
Fri 07:17:00 PM 39.4194 -77.4500 North  Level FlightAware Approximate
Fri 07:17:08 PM 39.2131 -77.5042 358° North 278 320 9,200  Level Washington Center
Fri 07:18:00 PM 39.5166 -77.4500 North  Level FlightAware Approximate
Fri 07:18:06 PM 39.2919 -77.5169 353° North 272 313 10,500  Level Washington Center
Fri 07:19:07 PM 39.3856 -77.5222 358° North 297 342 11,400 1,271 Climbing Washington Center
Fri 07:20:56 PM 39.5536 -77.4786 11° North 355 409 14,100 1,509 Climbing New York Center
Fri 07:21:54 PM 39.6614 -77.4539 10° North 355 409 15,600 1,373 Climbing New York Center
Fri 07:22:54 PM 39.7636 -77.4528 360° North 362 417 16,800 1,041 Climbing New York Center
Fri 07:23:55 PM 39.8681 -77.4492 North 369 425 17,700 893 Climbing New York Center
Fri 07:24:55 PM 39.9661 -77.4506 359° North 375 432 18,600 1,008 Climbing New York Center
Fri 07:25:54 PM 40.0725 -77.4497 360° North 381 438 19,700 992 Climbing New York Center
Fri 07:26:56 PM 40.1811 -77.4467 North 388 447 20,600 950 Climbing New York Center
Fri 07:27:54 PM 40.2917 -77.4436 North 388 447 21,600 1,169 Climbing New York Center
Fri 07:28:54 PM 40.4147 -77.4419 North 393 452 22,900 700 Climbing New York Center
Fri 07:29:54 PM 40.5317 -77.4397 North 399 459 23,000 49 Climbing New York Center
Fri 07:30:56 PM 40.6469 -77.3906 18° North 420 483 23,000  Level New York Center
Fri 07:31:56 PM 40.7414 -77.3422 21° North 427 491 23,000  Level New York Center
Fri 07:32:54 PM 40.8678 -77.2803 20° North 432 497 23,000  Level New York Center
Fri 07:33:54 PM 40.9858 -77.2200 21° North 443 510 23,000  Level New York Center
Fri 07:34:56 PM 41.1036 -77.1622 20° North 443 510 23,000  Level New York Center
Fri 07:35:54 PM 41.2192 -77.1042 21° North 443 510 23,000  Level New York Center
Fri 07:36:56 PM 41.3350 -77.0433 22° Northeast 443 510 23,000  Level New York Center
Fri 07:37:56 PM 41.4506 -76.9847 21° North 443 510 23,000  Level New York Center
Fri 07:38:55 PM 41.5683 -76.9236 21° North 443 510 23,000 -101 Level New York Center
Fri 07:39:55 PM 41.6814 -76.8675 20° North 443 510 22,800 -793 Descending New York Center
Fri 07:40:56 PM 41.7928 -76.8081 22° Northeast 443 510 21,400 -1,664 Descending New York Center
Fri 07:41:54 PM 41.8997 -76.7508 22° Northeast 430 495 19,500 -1,815 Descending New York Center
Fri 07:42:55 PM 42.0067 -76.6964 21° North 411 473 17,800 -1,672 Descending New York Center
Fri 07:43:56 PM 42.1094 -76.6411 22° Northeast 400 460 16,100 -1,686 Descending New York Center
Fri 07:44:56 PM 42.2139 -76.5889 20° North 400 460 14,400 -1,646 Descending New York Center
Fri 07:46:40 PM 42.4031 -76.4922 21° North 371 427 11,600 -1,236 Descending Boston Center
Fri 07:47:41 PM 42.4922 -76.4472 20° North 352 405 11,000 -295 Descending Boston Center
Fri 07:48:42 PM 42.5836 -76.3969 22° Northeast 349 402 11,000  Level Boston Center
Fri 07:49:43 PM 42.6750 -76.3489 21° North 360 414 11,000 -347 Level Boston Center
Fri 07:50:43 PM 42.7664 -76.2981 22° Northeast 348 400 10,300 -942 Descending Boston Center
Fri 07:51:44 PM 42.8372 -76.2375 32° Northeast 283 326 9,100 -1,574 Descending Boston Center
Fri 07:52:45 PM 42.8997 -76.1761 36° Northeast 274 315 7,100 -2,033 Descending Boston Center
Fri 07:53:45 PM 42.9622 -76.1117 37° Northeast 264 304 5,000 -1,934 Descending Boston Center
Fri 07:54:46 PM 43.0161 -76.0611 34° Northeast 237 273 3,200 -1,377 Descending Boston Center
Fri 07:55:47 PM 43.0694 -76.0244 27° Northeast 184 212 2,200 -934 Descending Boston Center
Fri 07:56:48 PM 43.1064 -76.0408 342° North 132 152 1,300 -885 Descending Boston Center

Login

Don't have an account? Register now (free) for customized features, flight alerts, and more!